Latest Weather Observations for Mount Hotham

IDV60801

Issued at 9:32 pm EST Sunday 3 July 2022 (issued every 10 minutes, with the page automatically refreshed every 10 minutes)

About weather observations | Map of weather stations | Latest weather observations for VIC | Other Formats
Station Details ID: 083085 Name: MOUNT HOTHAM Lat: -36.98 Lon: 147.13 Height: 1849.0 m
Data from the previous 72 hours. | See also: Recent months at Mount Hotham
Date/Time
EST
Temp
°C
App
Temp
°C
Dew
Point
°C
Rel
Hum
%
Delta-T
°C
Wind Press
QNH
hPa
Press
MSL
hPa
Rain since
9am
mm
Dir  Spd
km/h
Gust
km/h
Spd
kts
Gust
kts
03/09:30pm -2.7 -10.4 -2.8 99 -0.1 ESE 28 43 15 23 - - 0.2
03/09:00pm -2.7 -10.0 -2.8 99 -0.1 ESE 26 37 14 20 - - 0.2
03/08:30pm -2.7 -10.8 -2.8 99 -0.1 ESE 30 43 16 23 - - 0.2
03/08:00pm -2.4 -10.0 -2.5 99 -0.1 ESE 28 41 15 22 - - 0.2
03/07:30pm -2.1 -9.7 -2.2 99 -0.1 ESE 28 39 15 21 - - 0.2
03/07:00pm -1.8 -9.7 -1.9 99 -0.1 ESE 30 44 16 24 - - 0.2
03/06:30pm -1.6 -9.1 -1.7 99 0.0 ESE 28 41 15 22 - - 0.2
03/06:00pm -1.7 -8.5 -1.8 99 0.0 ESE 24 39 13 21 - - 0.2
03/05:30pm -1.5 -8.6 -1.6 99 0.0 ESE 26 43 14 23 - - 0.2
03/05:00pm -1.5 -9.0 -1.6 99 0.0 ESE 28 39 15 21 - - 0.2
03/04:30pm -1.2 -8.3 -1.3 99 0.0 ESE 26 37 14 20 - - 0.2
03/04:00pm -1.0 -7.7 -1.1 99 0.0 ESE 24 39 13 21 - - 0.2
03/03:30pm -0.8 -7.5 -0.9 99 0.0 ESE 24 37 13 20 - - 0.2
03/03:00pm -0.8 -7.5 -0.9 99 0.0 ESE 24 37 13 20 - - 0.2
03/02:30pm -0.7 -7.4 -0.8 99 0.0 ESE 24 39 13 21 - - 0.2
03/02:00pm -1.1 -8.2 -1.2 99 0.0 ESE 26 35 14 19 - - 0.2
03/01:30pm -1.0 -8.1 -1.1 99 0.0 ESE 26 35 14 19 - - 0.2
03/01:00pm -0.9 -7.6 -1.0 99 0.0 ESE 24 39 13 21 - - 0.2
03/12:30pm -1.2 -7.9 -1.3 99 0.0 ESE 24 35 13 19 - - 0.2
03/12:00pm -1.2 -7.5 -1.3 99 0.0 ESE 22 33 12 18 - - 0.2
03/11:30am -1.2 -7.2 -1.3 99 0.0 ESE 20 35 11 19 - - 0.2
03/11:00am -1.5 -7.9 -1.6 99 0.0 ESE 22 35 12 19 - - 0.2
03/10:30am -1.7 -8.9 -1.8 99 0.0 ESE 26 39 14 21 - - 0.0
03/10:00am -2.1 -8.9 -2.2 99 -0.1 ESE 24 43 13 23 - - 0.0
03/09:30am -2.1 -8.9 -2.2 99 -0.1 ESE 24 37 13 20 - - 0.0
03/09:00am -2.4 -9.3 -2.5 99 -0.1 ESE 24 39 13 21 - - 0.2
03/08:30am -2.6 -9.1 -2.7 99 -0.1 ESE 22 37 12 20 - - 0.2
03/08:00am -2.7 -9.6 -2.8 99 -0.1 ESE 24 41 13 22 - - 0.2
03/07:30am -2.7 -9.6 -2.8 99 -0.1 E 24 41 13 22 - - 0.2
03/07:00am -2.9 -10.2 -3.0 99 -0.1 E 26 43 14 23 - - 0.2
03/06:30am -3.0 -9.6 -3.1 99 -0.1 E 22 32 12 17 - - 0.2
03/06:00am -3.4 -9.6 -3.5 99 -0.1 E 20 35 11 19 - - 0.2
03/05:30am -3.6 -10.2 -3.7 99 -0.1 E 22 35 12 19 - - 0.2
03/05:00am -3.6 -10.2 -3.7 99 -0.1 E 22 33 12 18 - - 0.2
03/04:30am -3.8 -10.5 -3.9 99 -0.1 E 22 35 12 19 - - 0.2
03/04:00am -3.9 -10.2 -4.0 99 -0.1 E 20 30 11 16 - - 0.2
03/03:30am -4.0 -11.1 -4.1 99 -0.1 ESE 24 37 13 20 - - 0.2
03/03:00am -4.0 -10.3 -4.1 99 -0.1 ESE 20 35 11 19 - - 0.2
03/02:30am -4.1 -10.4 -4.2 99 -0.2 ESE 20 30 11 16 - - 0.2
03/02:00am -4.0 -11.1 -4.8 94 0.1 ESE 24 33 13 18 - - 0.2
03/01:30am -3.5 -10.2 -4.5 93 0.2 ESE 22 39 12 21 - - 0.2
03/01:00am -3.2 -10.8 -5.5 84 0.6 E 26 41 14 22 - - 0.2
03/12:30am -2.8 -9.7 -5.9 79 0.9 E 22 39 12 21 - - 0.2
03/12:00am -3.4 -10.2 -5.1 88 0.4 ESE 22 33 12 18 - - 0.2
 
Date/Time
EST
Temp
°C
App
Temp
°C
Dew
Point
°C
Rel
Hum
%
Delta-T
°C
Wind Press
QNH
hPa
Press
MSL
hPa
Rain since
9am
mm
Dir  Spd
km/h
Gust
km/h
Spd
kts
Gust
kts
02/11:30pm -3.7 -11.3 -5.2 89 0.4 ESE 26 35 14 19 - - 0.2
02/11:00pm -3.9 -11.0 -4.3 97 0.0 ESE 24 33 13 18 - - 0.2
02/10:30pm -4.0 -10.7 -4.1 99 -0.1 ESE 22 37 12 20 - - 0.2
02/10:00pm -3.6 -9.9 -3.7 99 -0.1 SE 20 30 11 16 - - 0.2
02/09:30pm -3.4 -11.2 -3.5 99 -0.1 ESE 28 39 15 21 - - 0.2
02/09:00pm -3.1 -11.2 -3.2 99 -0.1 ESE 30 39 16 21 - - 0.2
02/08:30pm -3.2 -10.9 -3.3 99 -0.1 ESE 28 37 15 20 - - 0.2
02/08:00pm -3.2 -9.8 -3.3 99 -0.1 ESE 22 32 12 17 - - 0.2
02/07:30pm -3.2 -9.8 -3.3 99 -0.1 ESE 22 32 12 17 - - 0.2
02/07:00pm -3.0 -9.0 -3.1 99 -0.1 ESE 19 28 10 15 - - 0.2
02/06:30pm -3.4 -9.5 -3.5 99 -0.1 ESE 19 26 10 14 - - 0.2
02/06:00pm -3.0 -8.6 -3.1 99 -0.1 ESE 17 24 9 13 - - 0.2
02/05:30pm -2.6 -8.6 -2.7 99 -0.1 ESE 19 26 10 14 - - 0.2
02/05:00pm -2.5 -9.4 -2.6 99 -0.1 ESE 24 32 13 17 - - 0.2
02/04:30pm -2.3 -9.2 -2.4 99 -0.1 ESE 24 33 13 18 - - 0.2
02/04:00pm -1.5 -7.9 -1.8 98 0.0 ESE 22 32 12 17 - - 0.2
02/03:30pm -1.0 -7.8 -1.8 94 0.3 ESE 24 33 13 18 - - 0.2
02/03:00pm -0.6 -7.4 -1.7 92 0.4 ESE 24 33 13 18 - - 0.2
02/02:30pm -0.4 -8.4 -2.1 88 0.6 SE 30 41 16 22 - - 0.2
02/02:00pm -0.5 -9.0 -2.9 84 0.9 SE 32 41 17 22 - - 0.2
02/01:30pm -0.5 -7.3 -1.6 92 0.4 SE 24 37 13 20 - - 0.2
02/01:00pm -1.3 -7.3 -2.7 90 0.5 SE 19 24 10 13 - - 0.0
02/12:30pm -1.4 -6.2 -2.4 93 0.3 ESE 13 19 7 10 - - 0.0
02/12:00pm -2.0 -7.3 -4.0 86 0.6 ESE 15 26 8 14 - - 0.0
02/11:30am -2.4 -8.5 -3.7 91 0.4 ESE 19 32 10 17 - - 0.0
02/11:00am -2.5 -8.7 -3.0 96 0.1 ESE 20 30 11 16 - - 0.0
02/10:30am -2.6 -8.7 -2.7 99 -0.1 ESE 20 35 11 19 - - 0.0
02/10:00am -3.0 -10.3 -3.1 99 -0.1 ESE 26 37 14 20 - - 0.0
02/09:30am -3.3 -10.7 -3.4 99 -0.1 ESE 26 39 14 21 - - 0.0
02/09:00am -3.4 -10.8 -3.5 99 -0.1 ESE 26 37 14 20 - - 1.0
02/08:30am -3.7 -10.7 -3.8 99 -0.1 ESE 24 37 13 20 - - 1.0
02/08:00am -3.2 -10.9 -3.3 99 -0.1 ESE 28 39 15 21 - - 1.0
02/07:30am -3.2 -10.6 -3.3 99 -0.1 ESE 26 33 14 18 - - 1.0
02/07:00am -3.3 -10.3 -3.4 99 -0.1 ESE 24 32 13 17 - - 1.0
02/06:30am -2.9 -8.9 -3.0 99 -0.1 ESE 19 30 10 16 - - 1.0
02/06:00am -2.9 -8.9 -3.0 99 -0.1 E 19 26 10 14 - - 1.0
02/05:30am -3.3 -9.0 -3.4 99 -0.1 E 17 24 9 13 - - 1.0
02/05:00am -2.9 -8.5 -3.0 99 -0.1 E 17 22 9 12 - - 1.0
02/04:30am -3.3 -9.0 -3.4 99 -0.1 E 17 22 9 12 - - 1.0
02/04:00am -3.0 -8.6 -3.1 99 -0.1 E 17 28 9 15 - - 1.0
02/03:30am -3.0 -8.6 -3.1 99 -0.1 ESE 17 24 9 13 - - 1.0
02/03:00am -2.9 -8.5 -3.0 99 -0.1 E 17 26 9 14 - - 1.0
02/02:30am -3.3 -9.0 -3.4 99 -0.1 E 17 28 9 15 - - 1.0
02/02:00am -4.5 -10.7 -5.0 96 0.0 ESE 19 26 10 14 - - 1.0
02/01:30am -4.3 -10.6 -4.4 99 -0.2 ESE 20 28 11 15 - - 1.0
02/01:00am -5.1 -10.6 -5.2 99 -0.2 E 15 28 8 15 - - 1.0
02/12:30am -4.8 -9.9 -4.9 99 -0.2 ESE 13 22 7 12 - - 1.0
02/12:00am -4.5 -11.2 -4.6 99 -0.2 ESE 22 32 12 17 - - 1.0
 
Date/Time
EST
Temp
°C
App
Temp
°C
Dew
Point
°C
Rel
Hum
%
Delta-T
°C
Wind Press
QNH
hPa
Press
MSL
hPa
Rain since
9am
mm
Dir  Spd
km/h
Gust
km/h
Spd
kts
Gust
kts
01/11:30pm -4.1 -11.6 -4.2 99 -0.2 ESE 26 35 14 19 - - 1.0
01/11:00pm -4.1 -11.6 -4.2 99 -0.2 ESE 26 35 14 19 - - 1.0
01/10:30pm -4.1 -12.9 -4.2 99 -0.2 ESE 33 44 18 24 - - 1.0
01/10:00pm -4.1 -12.3 -4.2 99 -0.2 ESE 30 39 16 21 - - 1.0
01/09:30pm -4.2 -12.4 -4.3 99 -0.2 ESE 30 41 16 22 - - 1.0
01/09:00pm -3.8 -12.4 -3.9 99 -0.1 ESE 32 39 17 21 - - 1.0
01/08:30pm -3.5 -12.0 -3.6 99 -0.1 ESE 32 39 17 21 - - 1.0
01/08:00pm -3.2 -11.7 -3.3 99 -0.1 ESE 32 44 17 24 - - 1.0
01/07:30pm -3.4 -11.9 -3.5 99 -0.1 ESE 32 43 17 23 - - 1.0
01/07:00pm -3.3 -12.8 -3.4 99 -0.1 ESE 37 44 20 24 - - 1.0
01/06:30pm -3.0 -11.7 -3.1 99 -0.1 ESE 33 43 18 23 - - 1.0
01/06:00pm -3.0 -12.8 -3.1 99 -0.1 SE 39 46 21 25 - - 1.0
01/05:30pm -2.6 -11.6 -2.7 99 -0.1 SE 35 43 19 23 - - 1.0
01/05:00pm -2.1 -10.1 -2.2 99 -0.1 SE 30 39 16 21 - - 1.0
01/04:30pm -2.2 -10.8 -2.3 99 -0.1 SE 33 44 18 24 - - 1.0
01/04:00pm -1.8 -10.1 -1.9 99 -0.1 SE 32 43 17 23 - - 1.0
01/03:30pm -1.2 -8.7 -1.3 99 0.0 SE 28 39 15 21 - - 1.0
01/03:00pm -0.9 -8.0 -1.0 99 0.0 SE 26 33 14 18 - - 1.0
01/02:30pm -1.0 -8.5 -1.1 99 0.0 SE 28 37 15 20 - - 1.0
01/02:00pm -1.1 -9.0 -1.2 99 0.0 SE 30 41 16 22 - - 1.0
01/01:30pm -1.0 -8.1 -1.1 99 0.0 SE 26 33 14 18 - - 1.0
01/01:00pm -1.1 -8.2 -1.2 99 0.0 SE 26 37 14 20 - - 1.0
01/12:30pm -0.9 -8.0 -1.0 99 0.0 SE 26 41 14 22 - - 1.0
01/12:00pm -1.2 -7.9 -1.3 99 0.0 ESE 24 32 13 17 - - 1.0
01/11:30am -1.1 -7.4 -1.2 99 0.0 ESE 22 32 12 17 - - 1.0
01/11:00am -1.4 -8.5 -1.5 99 0.0 ESE 26 33 14 18 - - 1.0
01/10:30am -1.6 -9.5 -1.7 99 0.0 ESE 30 39 16 21 - - 0.6
01/10:00am -1.7 -9.3 -1.8 99 0.0 ESE 28 39 15 21 - - 0.0
01/09:30am -2.0 -10.4 -2.1 99 -0.1 SE 32 41 17 22 - - 0.0
01/09:00am -2.0 -10.4 -2.1 99 -0.1 SE 32 41 17 22 - - 0.8
01/08:30am -2.1 -9.7 -2.2 99 -0.1 ESE 28 39 15 21 - - 0.8
01/08:00am -2.4 -10.0 -2.5 99 -0.1 ESE 28 41 15 22 - - 0.8
01/07:30am -2.7 -10.8 -2.8 99 -0.1 ESE 30 39 16 21 - - 0.8
01/07:00am -3.3 -11.1 -3.4 99 -0.1 ESE 28 35 15 19 - - 0.8
01/06:30am -3.8 -12.0 -3.9 99 -0.1 ESE 30 37 16 20 - - 0.8
01/06:00am -4.1 -11.6 -4.8 95 0.1 ESE 26 33 14 18 - - 0.8
01/05:30am -4.2 -13.0 -5.7 89 0.3 SE 32 39 17 21 - - 0.8
01/05:00am -4.4 -11.6 -5.2 94 0.1 SE 24 30 13 16 - - 0.8
01/04:30am -3.5 -11.3 -3.6 99 -0.1 SE 28 33 15 18 - - 0.8
01/04:00am -2.9 -9.8 -3.0 99 -0.1 SE 24 30 13 16 - - 0.8
01/03:30am -2.2 -8.3 -2.3 99 -0.1 SE 20 26 11 14 - - 0.8
01/03:00am -2.0 -8.8 -2.1 99 -0.1 SE 24 30 13 16 - - 0.8
01/02:30am -2.1 -8.2 -2.2 99 -0.1 ESE 20 28 11 15 - - 0.8
01/02:00am -2.1 -8.2 -2.2 99 -0.1 ESE 20 26 11 14 - - 0.8
01/01:30am -2.0 -6.7 -2.1 99 -0.1 ESE 13 17 7 9 - - 0.8
01/01:00am -1.8 -6.9 -1.9 99 -0.1 ESE 15 20 8 11 - - 0.8
01/12:30am -1.8 -6.9 -1.9 99 -0.1 ESE 15 20 8 11 - - 0.8
01/12:00am -1.8 -7.3 -1.9 99 -0.1 ESE 17 22 9 12 - - 0.8
 
Date/Time
EST
Temp
°C
App
Temp
°C
Dew
Point
°C
Rel
Hum
%
Delta-T
°C
Wind Press
QNH
hPa
Press
MSL
hPa
Rain since
9am
mm
Dir  Spd
km/h
Gust
km/h
Spd
kts
Gust
kts
30/11:30pm -1.8 -6.9 -1.9 99 -0.1 SE 15 22 8 12 - - 0.8
30/11:00pm -1.8 -6.9 -1.9 99 -0.1 SSE 15 22 8 12 - - 0.8
30/10:30pm -2.4 -7.6 -2.5 99 -0.1 SE 15 20 8 11 - - 0.8
30/10:00pm -1.8 -6.6 -2.5 95 0.2 ESE 13 19 7 10 - - 0.8

Other formats

Comma delimited format used in spreadsheet applications
http://www.bom.gov.au/fwo/IDV60801/IDV60801.94906.axf

JavaScript Object Notation format (JSON) in row-major order
http://www.bom.gov.au/fwo/IDV60801/IDV60801.94906.json

Data quality

Most of these data are generated automatically and are frequently updated. Quality checks on data are not normally performed. It is possible for incorrect values to appear. Refer to information at About Latest Weather Observations and please check the disclaimer before using these data.